Time;durP1;ratioP1;P1;durP2;ratioP2;P2;SDS_P1;SDS_P2;PMS_P1;PMS_P2;Temp;Humidity;BMP_temperature;BMP_pressure;BME280_temperature;BME280_humidity;BME280_pressure;Samples;Min_cycle;Max_cycle;Signal;HPM_P1;HPM_P2
2023/03/23 00:00:17;;;;;;;0.65;0.65;;;;;;;12.91;58.83;99157.56;10489981;28;20044;-73
2023/03/23 00:05:18;;;;;;;1.83;0.68;;;;;;;13.23;57.37;99157.56;10490987;28;20399;-72
2023/03/23 00:10:19;;;;;;;1.55;0.57;;;;;;;13.39;56.52;99150.50;10491947;28;20056;-72
2023/03/23 00:15:19;;;;;;;0.60;0.45;;;;;;;13.39;56.63;99155.75;10489798;28;20048;-74
2023/03/23 00:20:23;;;;;;;0.60;0.52;;;;;;;13.40;55.74;99154.81;10473709;28;20044;-73
2023/03/23 00:25:24;;;;;;;0.68;0.43;;;;;;;13.40;55.49;99152.19;10489601;28;20041;-73
2023/03/23 00:30:25;;;;;;;2.10;0.50;;;;;;;13.30;55.96;99158.94;10471235;28;20040;-72
2023/03/23 00:35:27;;;;;;;0.70;0.70;;;;;;;13.30;56.55;99153.66;10488256;28;20504;-73
2023/03/23 00:40:28;;;;;;;0.98;0.60;;;;;;;13.24;57.33;99151.38;10488196;28;20389;-73
2023/03/23 00:45:29;;;;;;;2.17;1.20;;;;;;;13.10;58.19;99146.81;10471769;28;20071;-73
2023/03/23 00:50:29;;;;;;;2.47;1.55;;;;;;;13.32;56.88;99139.41;10487301;28;20035;-73
2023/03/23 00:55:31;;;;;;;2.53;1.45;;;;;;;13.23;57.93;99139.94;10470238;28;20060;-72
2023/03/23 01:00:32;;;;;;;3.88;1.30;;;;;;;13.09;57.94;99132.78;10488296;28;20043;-72
2023/03/23 01:05:37;;;;;;;2.58;1.60;;;;;;;13.00;58.52;99128.03;10471125;28;20044;-73
2023/03/23 01:10:38;;;;;;;2.50;1.20;;;;;;;12.92;58.30;99126.75;10487593;28;20040;-73
2023/03/23 01:15:39;;;;;;;3.63;1.25;;;;;;;12.82;58.48;99115.88;10486035;28;20045;-73
2023/03/23 01:20:42;;;;;;;2.20;1.02;;;;;;;12.75;58.03;99094.28;10470106;28;20048;-73
2023/03/23 01:25:44;;;;;;;1.48;0.63;;;;;;;12.70;58.37;99095.44;10486679;28;20094;-72
2023/03/23 01:30:45;;;;;;;1.65;0.80;;;;;;;12.85;57.76;99094.59;10468962;28;20047;-74
2023/03/23 01:35:46;;;;;;;1.15;0.70;;;;;;;12.83;57.92;99078.84;10468941;28;20112;-72
2023/03/23 01:40:46;;;;;;;1.10;0.70;;;;;;;12.82;57.47;99082.44;10470232;28;20123;-72
2023/03/23 01:45:49;;;;;;;1.20;0.98;;;;;;;12.63;58.08;99072.06;10469246;28;20064;-73
2023/03/23 01:50:58;;;;;;;0.98;0.50;;;;;;;12.51;57.74;99062.19;10485749;28;20459;-73
2023/03/23 01:56:01;;;;;;;1.13;0.55;;;;;;;12.65;57.18;99071.13;10469346;28;20041;-73
2023/03/23 02:01:07;;;;;;;1.05;0.45;;;;;;;12.79;56.80;99058.88;10467431;28;20040;-71
2023/03/23 02:06:08;;;;;;;0.75;0.50;;;;;;;12.75;57.20;99073.19;10468147;28;20044;-71
2023/03/23 02:11:20;;;;;;;0.50;0.40;;;;;;;12.64;57.26;99070.28;10468264;28;20093;-72
2023/03/23 02:16:21;;;;;;;1.90;0.60;;;;;;;12.54;57.21;99075.22;10483771;28;20040;-74
2023/03/23 02:21:46;;;;;;;0.73;0.50;;;;;;;12.49;56.59;99064.06;10465469;28;20182;-74
2023/03/23 02:26:56;;;;;;;0.82;0.50;;;;;;;12.55;57.09;99062.88;10482723;28;20040;-73
2023/03/23 02:32:00;;;;;;;1.88;0.70;;;;;;;12.55;58.92;99060.25;10465447;28;20040;-73
2023/03/23 02:37:26;;;;;;;1.52;0.50;;;;;;;12.58;60.33;99068.84;10466697;28;20048;-73
2023/03/23 02:42:32;;;;;;;1.83;0.80;;;;;;;12.44;61.80;99066.13;10474988;28;20045;-73
2023/03/23 02:47:37;;;;;;;2.50;1.00;;;;;;;12.43;61.67;99058.28;10473984;28;20040;-74
2023/03/23 02:52:40;;;;;;;1.40;0.80;;;;;;;12.31;61.91;99062.44;10490854;28;20063;-74
2023/03/23 02:57:43;;;;;;;0.80;0.70;;;;;;;12.11;63.26;99056.44;10474983;28;20033;-73
2023/03/23 03:02:52;;;;;;;2.65;1.00;;;;;;;12.04;65.47;99052.47;10473332;28;20049;-73
2023/03/23 03:07:59;;;;;;;;;;;;;;;11.83;66.68;99045.69;10473998;28;20060;-73
2023/03/23 03:13:09;;;;;;;1.90;0.77;;;;;;;11.70;68.38;99048.06;10472755;28;20301;-73
2023/03/23 03:18:34;;;;;;;2.40;0.95;;;;;;;11.70;69.53;99040.19;10472650;28;20048;-73
2023/03/23 03:23:37;;;;;;;1.48;0.70;;;;;;;11.35;70.57;99034.09;10472335;28;20089;-73
2023/03/23 03:28:41;;;;;;;1.35;0.98;;;;;;;11.40;69.08;99021.56;10488393;28;20064;-73
2023/03/23 03:33:43;;;;;;;1.67;0.90;;;;;;;11.41;68.59;99028.50;10471519;28;20045;-72
2023/03/23 03:38:48;;;;;;;1.92;0.90;;;;;;;11.66;68.03;99033.38;10488174;28;20048;-73
2023/03/23 03:43:50;;;;;;;2.92;1.20;;;;;;;11.65;68.40;99033.47;10471205;28;20049;-74
2023/03/23 03:48:51;;;;;;;1.70;1.10;;;;;;;11.77;65.02;99030.16;10487544;28;20033;-73
2023/03/23 03:53:54;;;;;;;1.27;0.70;;;;;;;11.66;64.92;99022.00;10471240;28;20135;-74
2023/03/23 03:58:55;;;;;;;0.77;0.45;;;;;;;11.91;63.43;99024.19;10470839;28;20549;-74
2023/03/23 04:04:07;;;;;;;2.65;0.80;;;;;;;12.15;63.35;99024.69;10457603;23;20047;-68
2023/03/23 04:09:10;;;;;;;1.63;0.70;;;;;;;12.08;62.55;99027.63;10427159;28;20033;-68
2023/03/23 04:14:11;;;;;;;1.60;0.60;;;;;;;12.03;62.75;99027.03;10426405;28;20525;-68
2023/03/23 04:19:18;;;;;;;0.85;0.57;;;;;;;12.13;62.76;99027.41;10427946;28;20129;-68
2023/03/23 04:24:21;;;;;;;1.50;0.70;;;;;;;12.26;62.12;99028.44;10426008;28;20052;-68
2023/03/23 04:29:22;;;;;;;0.95;0.70;;;;;;;12.29;63.52;99022.97;10426095;28;20041;-68
2023/03/23 04:34:49;;;;;;;2.65;0.88;;;;;;;12.33;65.12;99013.97;10442984;28;20561;-68
2023/03/23 04:39:59;;;;;;;1.52;0.70;;;;;;;12.43;63.49;99016.94;10442265;28;20029;-69
2023/03/23 04:45:02;;;;;;;2.67;0.77;;;;;;;12.25;62.57;99016.19;10426236;28;20055;-68
2023/03/23 04:50:12;;;;;;;1.00;0.60;;;;;;;12.20;62.79;99010.31;10441422;28;20128;-68
2023/03/23 04:55:15;;;;;;;0.73;0.60;;;;;;;12.37;62.09;99017.31;10425511;28;20060;-68
2023/03/23 05:00:20;;;;;;;0.95;0.80;;;;;;;12.38;62.88;99005.81;10425388;28;20037;-68
2023/03/23 05:05:30;;;;;;;1.42;0.90;;;;;;;12.48;62.50;98993.81;10426565;28;20049;-67
2023/03/23 05:10:32;;;;;;;1.25;0.82;;;;;;;12.47;62.56;99000.03;10425062;28;20562;-67
2023/03/23 05:15:40;;;;;;;1.10;0.65;;;;;;;12.48;63.06;99012.25;10441821;28;20037;-67
2023/03/23 05:20:42;;;;;;;2.08;0.80;;;;;;;12.36;63.15;99012.97;10424368;28;20115;-67
2023/03/23 05:25:54;;;;;;;1.02;0.60;;;;;;;12.28;63.97;99008.13;10425230;28;20045;-68
2023/03/23 05:30:55;;;;;;;0.82;0.77;;;;;;;12.22;64.33;99003.19;10423391;28;20079;-68
2023/03/23 05:35:58;;;;;;;1.02;0.70;;;;;;;12.24;64.31;99003.94;10423771;28;20041;-68
2023/03/23 05:41:08;;;;;;;1.05;0.70;;;;;;;12.24;64.86;99008.38;10439722;28;20041;-68
2023/03/23 05:46:14;;;;;;;1.52;1.10;;;;;;;12.19;65.34;99003.34;10423764;28;20049;-68
2023/03/23 05:51:16;;;;;;;1.92;1.10;;;;;;;12.37;65.33;99004.13;10439314;28;20033;-67
2023/03/23 05:56:19;;;;;;;3.55;1.10;;;;;;;12.54;66.46;99006.66;10422884;28;20044;-68
2023/03/23 06:01:38;;;;;;;3.03;1.02;;;;;;;12.55;65.44;99004.88;10441933;28;20045;-68
2023/03/23 06:06:41;;;;;;;2.35;1.00;;;;;;;12.70;64.36;99017.19;10422359;28;20049;-69
2023/03/23 06:11:45;;;;;;;1.08;0.70;;;;;;;13.17;57.11;99020.69;10422910;28;20033;-68
2023/03/23 06:17:02;;;;;;;0.70;0.50;;;;;;;13.58;55.59;99016.44;10425865;28;20045;-68
2023/03/23 06:22:05;;;;;;;0.82;0.52;;;;;;;13.93;52.86;99010.81;10421990;28;20040;-69
2023/03/23 06:27:32;;;;;;;1.00;0.57;;;;;;;14.23;52.27;99009.84;10417373;28;20502;-69
2023/03/23 06:32:33;;;;;;;1.70;0.77;;;;;;;14.42;52.26;99005.09;10439021;28;20402;-69
2023/03/23 06:37:36;;;;;;;0.85;0.80;;;;;;;14.69;50.94;99009.59;10437891;28;20040;-68
2023/03/23 06:42:50;;;;;;;1.00;0.57;;;;;;;14.64;51.44;99018.66;10437913;28;20044;-69
2023/03/23 06:47:59;;;;;;;3.20;0.70;;;;;;;14.70;51.60;99027.13;10439947;28;20052;-68
2023/03/23 06:53:02;;;;;;;4.57;0.90;;;;;;;14.69;51.74;99036.03;10423072;28;20041;-69
2023/03/23 06:58:08;;;;;;;1.65;0.60;;;;;;;14.74;51.57;99039.22;10438421;28;20217;-67
2023/03/23 07:03:09;;;;;;;2.15;0.60;;;;;;;14.85;51.40;99039.38;10421310;28;20127;-68
2023/03/23 07:08:14;;;;;;;1.48;0.57;;;;;;;14.98;50.74;99042.94;10421977;28;20044;-67
2023/03/23 07:13:21;;;;;;;1.10;0.70;;;;;;;15.16;50.38;99053.25;10422126;28;20132;-68
2023/03/23 07:18:27;;;;;;;2.20;0.52;;;;;;;15.29;50.35;99057.63;10421665;28;20073;-68
2023/03/23 07:23:30;;;;;;;2.85;0.65;;;;;;;15.24;51.43;99059.75;10422570;28;20494;-67
2023/03/23 07:28:37;;;;;;;1.00;0.70;;;;;;;15.32;50.12;99065.38;10444773;28;20048;-67
2023/03/23 07:34:11;;;;;;;2.78;0.77;;;;;;;15.44;50.39;99070.78;10438447;28;20053;-67
2023/03/23 07:39:30;;;;;;;1.95;0.65;;;;;;;15.40;50.44;99075.44;10448240;28;20082;-67
2023/03/23 07:44:34;;;;;;;1.25;0.73;;;;;;;15.51;49.87;99072.09;10428324;28;20524;-68
2023/03/23 07:49:40;;;;;;;1.80;0.60;;;;;;;15.45;50.13;99089.25;10444284;28;20097;-68
2023/03/23 07:54:50;;;;;;;1.48;0.70;;;;;;;15.56;51.36;99088.53;10428636;28;20501;-68
2023/03/23 08:00:12;;;;;;;1.70;0.70;;;;;;;15.84;50.25;99095.47;10430188;28;20052;-68
2023/03/23 08:05:17;;;;;;;1.23;0.70;;;;;;;15.69;50.87;99094.72;10444187;28;20049;-68
2023/03/23 08:10:40;;;;;;;0.65;0.65;;;;;;;15.71;51.48;99099.91;10431244;28;20193;-68
2023/03/23 08:16:13;;;;;;;1.52;0.70;;;;;;;15.62;50.99;99099.53;10427102;28;20045;-69
2023/03/23 08:21:33;;;;;;;1.45;0.80;;;;;;;15.40;52.37;99107.22;10430586;28;20064;-69
2023/03/23 08:26:53;;;;;;;8.60;0.80;;;;;;;15.35;52.79;99107.53;10414962;28;20135;-68
2023/03/23 08:32:12;;;;;;;3.50;0.82;;;;;;;15.34;52.35;99119.06;10428457;28;20037;-69
2023/03/23 08:37:19;;;;;;;1.15;0.60;;;;;;;15.36;52.75;99113.66;10442520;28;20051;-69
2023/03/23 08:42:47;;;;;;;0.63;0.50;;;;;;;15.39;52.19;99116.97;10429356;28;20506;-68
2023/03/23 08:48:07;;;;;;;2.25;1.10;;;;;;;15.41;53.23;99119.53;10445064;28;20410;-69
2023/03/23 08:53:34;;;;;;;2.53;0.90;;;;;;;15.48;54.79;99133.19;10440501;28;20045;-69
2023/03/23 08:58:53;;;;;;;1.45;0.88;;;;;;;15.21;54.43;99133.22;10444874;28;20048;-69
2023/03/23 09:04:26;;;;;;;2.38;0.90;;;;;;;15.22;55.59;99119.03;10417977;28;20048;-69
2023/03/23 09:09:49;;;;;;;2.53;0.80;;;;;;;15.17;57.08;99127.25;10444561;28;20052;-69
2023/03/23 09:14:50;;;;;;;1.67;0.82;;;;;;;15.20;58.23;99135.03;10440960;28;20056;-69
2023/03/23 09:19:50;;;;;;;1.38;0.93;;;;;;;15.17;61.76;99137.84;10440885;28;20064;-69
2023/03/23 09:24:51;;;;;;;1.83;1.02;;;;;;;14.88;60.22;99145.03;10441365;28;20036;-68
2023/03/23 09:29:52;;;;;;;1.70;1.05;;;;;;;14.89;61.29;99137.00;10440729;28;20184;-68
2023/03/23 09:34:55;;;;;;;1.67;0.95;;;;;;;14.70;64.94;99148.81;10440186;28;20044;-68
2023/03/23 09:39:55;;;;;;;1.42;0.95;;;;;;;14.70;65.92;99152.34;10440166;28;20127;-67
2023/03/23 09:45:15;;;;;;;2.45;1.17;;;;;;;14.61;68.73;99153.75;10439660;28;20041;-68
2023/03/23 09:50:21;;;;;;;1.20;0.95;;;;;;;14.38;71.77;99149.84;10440914;28;20116;-69
2023/03/23 09:55:22;;;;;;;2.95;1.00;;;;;;;14.45;69.66;99152.13;10457702;28;20052;-67
2023/03/23 10:00:30;;;;;;;2.20;1.10;;;;;;;14.55;70.51;99146.19;10456796;28;20048;-68
2023/03/23 10:05:33;;;;;;;1.50;0.80;;;;;;;14.75;67.98;99141.47;10437231;23;20045;-72
2023/03/23 10:11:04;;;;;;;0.90;0.80;;;;;;;14.84;70.50;99136.44;10458152;28;20098;-73
2023/03/23 10:16:10;;;;;;;2.28;0.73;;;;;;;14.96;67.84;99141.88;10442429;28;20092;-73
2023/03/23 10:21:16;;;;;;;1.63;0.70;;;;;;;15.07;68.28;99131.47;10423701;28;20068;-73
2023/03/23 10:26:42;;;;;;;1.95;1.00;;;;;;;15.22;66.31;99143.69;10440165;28;20045;-73
2023/03/23 10:31:53;;;;;;;2.75;0.70;;;;;;;15.29;64.03;99141.50;10440490;28;20044;-73
2023/03/23 10:37:18;;;;;;;0.60;0.60;;;;;;;15.37;63.91;99132.13;10440096;28;20044;-73
2023/03/23 10:42:28;;;;;;;1.20;0.55;;;;;;;15.44;63.16;99132.56;10440210;28;20045;-73
2023/03/23 10:47:28;;;;;;;0.80;0.80;;;;;;;15.50;62.69;99124.22;10439831;28;20045;-73
2023/03/23 10:52:32;;;;;;;1.23;0.70;;;;;;;15.57;62.96;99122.84;10423500;28;20498;-73
2023/03/23 10:57:34;;;;;;;2.30;0.73;;;;;;;15.63;63.61;99114.50;10423067;28;20494;-74
2023/03/23 11:02:42;;;;;;;1.35;0.75;;;;;;;15.74;62.85;99118.25;10430296;28;20473;-73
2023/03/23 11:07:49;;;;;;;2.42;0.70;;;;;;;15.66;61.94;99118.75;10447015;28;20041;-73
2023/03/23 11:12:52;;;;;;;0.60;0.50;;;;;;;15.68;62.01;99131.91;10447152;28;20044;-74
2023/03/23 11:18:02;;;;;;;1.45;0.70;;;;;;;15.50;61.93;99134.81;10464586;28;20049;-74
2023/03/23 11:23:33;;;;;;;1.05;0.70;;;;;;;15.44;61.60;99142.28;10446260;28;20045;-73
2023/03/23 11:28:42;;;;;;;3.17;0.50;;;;;;;15.41;62.37;99146.00;10444686;28;20486;-74
2023/03/23 11:33:57;;;;;;;0.57;0.45;;;;;;;15.29;61.22;99147.66;10429983;28;20041;-74
2023/03/23 11:38:58;;;;;;;0.80;0.57;;;;;;;15.21;61.99;99160.53;10447511;28;20037;-74
2023/03/23 11:44:09;;;;;;;0.52;0.50;;;;;;;15.28;62.12;99164.50;10429437;28;20067;-74
2023/03/23 11:49:30;;;;;;;1.00;0.68;;;;;;;15.25;65.42;99177.94;10446833;28;20116;-73
2023/03/23 11:54:37;;;;;;;0.77;0.50;;;;;;;15.27;67.30;99169.88;10447367;28;20076;-74
2023/03/23 11:59:38;;;;;;;1.10;0.50;;;;;;;15.14;71.00;99181.28;10448136;28;20390;-74
2023/03/23 12:05:01;;;;;;;1.80;0.70;;;;;;;14.85;72.20;99180.47;10446015;28;20040;-73
2023/03/23 12:10:13;;;;;;;1.13;0.50;;;;;;;14.69;71.03;99171.78;10429235;28;20406;-73
2023/03/23 12:15:23;;;;;;;0.60;0.50;;;;;;;14.75;74.55;99175.84;10429562;28;20053;-73
2023/03/23 12:20:37;;;;;;;1.13;0.50;;;;;;;14.86;74.95;99170.72;10445251;28;20037;-73
2023/03/23 12:26:09;;;;;;;0.50;0.50;;;;;;;14.99;71.50;99158.41;10444040;28;20537;-73
2023/03/23 12:31:28;;;;;;;1.25;0.50;;;;;;;15.07;72.90;99158.78;10444310;28;20120;-73
2023/03/23 12:36:56;;;;;;;0.95;0.65;;;;;;;15.24;70.05;99160.34;10443505;28;20406;-72
2023/03/23 12:42:06;;;;;;;1.15;0.60;;;;;;;15.21;67.49;99165.84;10444978;28;20041;-73
2023/03/23 12:47:41;;;;;;;1.05;0.70;;;;;;;15.04;69.92;99148.38;10444226;28;20041;-73
2023/03/23 12:53:04;;;;;;;1.70;0.60;;;;;;;15.19;69.50;99145.72;10443262;28;20037;-74
2023/03/23 12:58:13;;;;;;;2.60;0.70;;;;;;;15.21;69.53;99144.66;10443761;28;20123;-73
2023/03/23 13:03:44;;;;;;;2.10;0.73;;;;;;;15.54;65.71;99144.25;10426719;28;20041;-74
2023/03/23 13:09:02;;;;;;;1.15;0.60;;;;;;;15.76;68.02;99159.59;10410103;28;20045;-73
2023/03/23 13:14:27;;;;;;;1.33;0.60;;;;;;;16.01;65.41;99152.63;10461966;28;20037;-73
2023/03/23 13:19:56;;;;;;;3.38;0.68;;;;;;;16.23;66.63;99139.59;10428080;28;20049;-73
2023/03/23 13:25:01;;;;;;;2.03;0.98;;;;;;;16.38;63.00;99135.06;10427260;28;20072;-74
2023/03/23 13:30:04;;;;;;;2.70;0.50;;;;;;;16.41;58.78;99126.84;10443994;28;20112;-73
2023/03/23 13:35:15;;;;;;;5.40;0.98;;;;;;;16.42;56.91;99117.94;10445164;28;20047;-73
2023/03/23 13:40:27;;;;;;;1.17;0.60;;;;;;;16.19;57.25;99110.75;10444155;28;20047;-75
2023/03/23 13:45:29;;;;;;;1.70;0.55;;;;;;;16.29;56.16;99090.56;10426652;28;20131;-77
2023/03/23 13:50:31;;;;;;;0.80;0.60;;;;;;;16.47;57.57;99105.22;10442319;28;20041;-73
2023/03/23 13:55:49;;;;;;;0.52;0.50;;;;;;;16.41;56.39;99084.41;10426105;28;20044;-74
2023/03/23 14:01:08;;;;;;;1.85;0.60;;;;;;;16.68;55.98;99072.78;10441969;28;20029;-74
2023/03/23 14:06:20;;;;;;;1.02;0.77;;;;;;;16.87;55.13;99087.31;10442372;28;20071;-73
2023/03/23 14:11:50;;;;;;;1.38;0.80;;;;;;;16.84;54.11;99074.25;10426576;28;20033;-74
2023/03/23 14:16:52;;;;;;;3.00;0.63;;;;;;;16.58;55.06;99081.41;10425675;28;20040;-73
2023/03/23 14:21:58;;;;;;;1.23;0.50;;;;;;;16.51;55.93;99068.69;10425174;28;20091;-73
2023/03/23 14:27:05;;;;;;;0.82;0.50;;;;;;;16.62;56.19;99066.13;10441565;28;20119;-73
2023/03/23 14:32:17;;;;;;;0.70;0.60;;;;;;;16.70;54.86;99087.66;10441560;28;20112;-72
2023/03/23 14:37:20;;;;;;;0.95;0.60;;;;;;;16.59;55.08;99093.72;10425654;28;20045;-74
2023/03/23 14:42:30;;;;;;;0.85;0.60;;;;;;;16.63;54.85;99105.81;10424957;28;20044;-72
2023/03/23 14:47:56;;;;;;;1.88;0.65;;;;;;;16.73;54.73;99103.38;10441536;28;20052;-74
2023/03/23 14:53:11;;;;;;;1.27;0.65;;;;;;;16.72;55.90;99103.47;10413171;28;20550;-73
2023/03/23 14:58:14;;;;;;;1.08;0.50;;;;;;;16.47;57.72;99102.56;10441859;28;20436;-73
2023/03/23 15:03:17;;;;;;;0.80;0.65;;;;;;;16.44;57.27;99093.97;10442431;28;20045;-73
2023/03/23 15:08:20;;;;;;;1.58;0.60;;;;;;;16.42;57.01;99091.41;10425235;28;20135;-73
2023/03/23 15:13:21;;;;;;;1.02;0.60;;;;;;;16.18;59.22;99095.81;10424616;28;20052;-74
2023/03/23 15:18:46;;;;;;;0.93;0.60;;;;;;;16.19;58.39;99094.84;10440392;28;20043;-73
2023/03/23 15:23:47;;;;;;;1.23;0.80;;;;;;;16.09;57.41;99099.94;10424175;28;20064;-73
2023/03/23 15:28:48;;;;;;;1.27;0.63;;;;;;;16.04;58.22;99110.03;10441068;28;20048;-73
2023/03/23 15:33:57;;;;;;;0.77;0.60;;;;;;;15.96;57.67;99121.13;10439992;28;20045;-73
2023/03/23 15:38:58;;;;;;;1.45;0.80;;;;;;;15.94;57.69;99122.19;10457966;28;20040;-73
2023/03/23 15:44:20;;;;;;;0.98;0.50;;;;;;;15.79;58.07;99132.88;10440810;28;20069;-74
2023/03/23 15:49:23;;;;;;;1.40;0.60;;;;;;;15.84;58.42;99128.09;10431843;28;20410;-73
2023/03/23 15:54:30;;;;;;;1.95;0.50;;;;;;;15.76;58.46;99126.94;10431519;28;20041;-72
2023/03/23 15:59:31;;;;;;;0.65;0.50;;;;;;;15.76;56.61;99146.34;10431431;28;20116;-73
2023/03/23 16:04:34;;;;;;;1.42;0.85;;;;;;;15.57;57.18;99148.47;10480114;22;20088;-73
2023/03/23 16:09:36;;;;;;;0.85;0.40;;;;;;;15.61;57.22;99150.81;10469050;28;20033;-73
2023/03/23 16:14:39;;;;;;;0.70;0.50;;;;;;;15.49;58.20;99134.91;10465452;28;20041;-74
2023/03/23 16:19:41;;;;;;;2.17;0.60;;;;;;;15.47;57.83;99135.00;10463889;28;20413;-74
2023/03/23 16:24:43;;;;;;;1.23;0.47;;;;;;;15.59;57.39;99134.19;10466600;28;20045;-73
2023/03/23 16:29:45;;;;;;;0.85;0.52;;;;;;;15.44;58.29;99164.31;10466706;28;20408;-74
2023/03/23 16:35:04;;;;;;;1.15;0.60;;;;;;;15.48;57.12;99180.88;10462999;28;20052;-74
2023/03/23 16:40:07;;;;;;;0.50;0.40;;;;;;;15.39;57.64;99191.13;10460240;28;20051;-72
2023/03/23 16:45:10;;;;;;;1.10;0.50;;;;;;;15.29;58.20;99181.22;10460480;28;20120;-72
2023/03/23 16:50:14;;;;;;;0.88;0.73;;;;;;;15.24;59.19;99184.19;10460817;28;20041;-72
2023/03/23 16:55:16;;;;;;;0.50;0.50;;;;;;;15.06;60.95;99188.84;10465452;28;20055;-73
2023/03/23 17:00:22;;;;;;;1.35;0.40;;;;;;;14.96;62.10;99178.94;10444888;28;20044;-73
2023/03/23 17:05:26;;;;;;;1.50;0.52;;;;;;;14.82;63.30;99172.72;10460736;28;20048;-74
2023/03/23 17:10:29;;;;;;;1.15;0.40;;;;;;;14.73;64.08;99177.72;10460284;28;20036;-74
2023/03/23 17:15:30;;;;;;;0.77;0.50;;;;;;;14.73;63.78;99191.81;10442749;28;20087;-74
2023/03/23 17:20:33;;;;;;;0.57;0.40;;;;;;;14.63;64.07;99220.63;10462612;28;20383;-73
2023/03/23 17:25:35;;;;;;;0.70;0.50;;;;;;;14.59;64.11;99212.97;10458977;28;20041;-73
2023/03/23 17:30:40;;;;;;;1.98;0.43;;;;;;;14.46;65.40;99215.47;10460054;28;20406;-73
2023/03/23 17:35:44;;;;;;;0.73;0.60;;;;;;;14.35;66.07;99205.56;10468845;28;20040;-75
2023/03/23 17:40:46;;;;;;;1.08;0.50;;;;;;;14.32;66.50;99218.13;10441431;28;20045;-74
2023/03/23 17:45:50;;;;;;;1.95;0.70;;;;;;;14.20;67.41;99208.28;10457952;28;20049;-74
2023/03/23 17:50:58;;;;;;;0.93;0.60;;;;;;;14.10;68.43;99210.63;10440389;28;20049;-73
2023/03/23 17:56:00;;;;;;;1.30;0.60;;;;;;;14.02;69.20;99210.22;10458187;28;20048;-72
2023/03/23 18:01:02;;;;;;;1.20;0.65;;;;;;;13.74;70.52;99211.84;10459017;28;20532;-72
2023/03/23 18:06:09;;;;;;;1.65;1.55;;;;;;;13.65;71.44;99214.16;10458412;28;20072;-72
2023/03/23 18:11:11;;;;;;;;;;;;;;;13.48;72.29;99218.59;10457541;28;20069;-72
2023/03/23 18:16:12;;;;;;;1.75;1.25;;;;;;;13.66;71.82;99226.41;10457357;28;19944;-72
2023/03/23 18:21:15;;;;;;;1.75;1.20;;;;;;;13.49;73.15;99230.84;10439893;28;20102;-72
2023/03/23 18:26:17;;;;;;;1.10;0.82;;;;;;;13.15;74.57;99231.88;10458415;28;20049;-73
2023/03/23 18:31:20;;;;;;;1.77;0.98;;;;;;;12.94;76.28;99214.56;10457037;28;20041;-71
2023/03/23 18:36:25;;;;;;;1.65;1.15;;;;;;;12.85;77.60;99223.84;10456165;28;20498;-74
2023/03/23 18:41:27;;;;;;;2.58;1.70;;;;;;;12.86;78.32;99213.19;10473411;28;20043;-72
2023/03/23 18:46:28;;;;;;;3.88;1.70;;;;;;;12.61;79.29;99211.00;10459870;28;20045;-73
2023/03/23 18:51:30;;;;;;;3.65;1.92;;;;;;;12.53;81.25;99221.13;10439890;28;20037;-72
2023/03/23 18:56:32;;;;;;;2.67;1.80;;;;;;;12.41;81.89;99213.03;10481046;28;20049;-72
2023/03/23 19:01:34;;;;;;;2.00;1.60;;;;;;;12.23;83.00;99218.31;10439266;28;20045;-72
2023/03/23 19:06:36;;;;;;;1.80;1.50;;;;;;;12.11;84.44;99232.09;10457578;28;20112;-71
2023/03/23 19:11:38;;;;;;;3.80;1.92;;;;;;;12.03;83.82;99227.22;10467887;28;20033;-72
2023/03/23 19:16:40;;;;;;;1.90;1.70;;;;;;;11.98;83.44;99223.97;10470096;28;20048;-72
2023/03/23 19:21:42;;;;;;;3.65;1.98;;;;;;;12.05;85.03;99225.38;10462501;28;20116;-72
2023/03/23 19:26:48;;;;;;;3.10;2.80;;;;;;;11.98;85.77;99228.38;10464845;28;20064;-72
2023/03/23 19:31:49;;;;;;;5.18;4.07;;;;;;;11.88;85.95;99221.88;10466619;28;20045;-72
2023/03/23 19:36:52;;;;;;;3.55;1.80;;;;;;;11.66;86.21;99222.06;10464787;28;20159;-73
2023/03/23 19:42:04;;;;;;;3.13;1.60;;;;;;;11.52;86.94;99210.44;10464254;28;20056;-73
2023/03/23 19:47:05;;;;;;;2.85;1.60;;;;;;;11.40;87.25;99207.53;10448218;28;20415;-72
2023/03/23 19:52:08;;;;;;;2.35;1.67;;;;;;;11.28;87.15;99201.91;10465952;28;20033;-72
2023/03/23 19:57:15;;;;;;;3.97;2.22;;;;;;;11.16;88.85;99209.56;10463566;28;20167;-74
2023/03/23 20:02:16;;;;;;;3.53;2.47;;;;;;;11.11;90.79;99215.00;10461803;28;20390;-73
2023/03/23 20:07:18;;;;;;;2.28;2.08;;;;;;;11.13;90.56;99213.19;10462037;28;20383;-72
2023/03/23 20:12:21;;;;;;;3.35;3.03;;;;;;;11.22;90.56;99217.16;10463995;28;20052;-73
2023/03/23 20:17:24;;;;;;;3.50;2.13;;;;;;;11.32;91.07;99224.53;10464547;28;20494;-73
2023/03/23 20:22:26;;;;;;;4.57;4.07;;;;;;;11.48;90.61;99219.38;10461738;28;20037;-73
2023/03/23 20:27:28;;;;;;;4.50;2.80;;;;;;;11.44;90.62;99217.84;10461708;28;20494;-73
2023/03/23 20:32:33;;;;;;;3.78;3.20;;;;;;;11.45;90.57;99224.78;10462608;28;20406;-72
2023/03/23 20:37:37;;;;;;;3.42;2.85;;;;;;;11.46;90.80;99223.00;10464644;28;20044;-72
2023/03/23 20:42:42;;;;;;;4.57;3.20;;;;;;;11.56;90.49;99238.31;10443362;28;20482;-72
2023/03/23 20:47:44;;;;;;;4.93;2.50;;;;;;;11.50;90.88;99235.09;10461072;28;20403;-73
2023/03/23 20:52:46;;;;;;;3.83;2.55;;;;;;;11.54;90.77;99234.88;10461482;28;20064;-73
2023/03/23 20:57:48;;;;;;;3.65;2.88;;;;;;;11.62;91.05;99230.09;10461415;28;20045;-73
2023/03/23 21:02:52;;;;;;;3.47;3.15;;;;;;;11.70;90.19;99223.63;10460014;28;20064;-72
2023/03/23 21:07:56;;;;;;;3.47;1.60;;;;;;;11.86;88.02;99216.66;10460627;28;20059;-72
2023/03/23 21:12:58;;;;;;;2.03;1.00;;;;;;;12.38;82.93;99209.59;10443950;28;20041;-72
2023/03/23 21:18:00;;;;;;;1.58;0.80;;;;;;;12.59;81.64;99204.13;10442026;28;20060;-72
2023/03/23 21:23:06;;;;;;;0.68;0.55;;;;;;;12.94;78.19;99202.22;10464818;28;20513;-73
2023/03/23 21:28:12;;;;;;;0.55;0.55;;;;;;;12.73;79.73;99198.97;10441322;28;20056;-72
2023/03/23 21:33:14;;;;;;;1.10;0.60;;;;;;;12.63;79.63;99203.88;10449949;28;20045;-72
2023/03/23 21:38:18;;;;;;;0.77;0.60;;;;;;;12.72;79.38;99178.81;10459688;28;20055;-73
2023/03/23 21:43:25;;;;;;;0.73;0.47;;;;;;;12.86;78.26;99185.97;10468817;28;20048;-72
2023/03/23 21:48:29;;;;;;;0.60;0.60;;;;;;;13.01;77.11;99182.47;10466241;28;20041;-73
2023/03/23 21:53:35;;;;;;;0.90;0.50;;;;;;;13.02;76.86;99181.56;10464725;28;20384;-73
2023/03/23 21:58:37;;;;;;;;;;;;;;;12.83;77.92;99170.31;10458256;28;20072;-73
2023/03/23 22:03:39;;;;;;;0.70;0.60;;;;;;;12.89;77.35;99170.00;10476221;22;19931;-73
2023/03/23 22:08:43;;;;;;;1.08;0.70;;;;;;;12.97;76.82;99166.91;10523558;28;20572;-73
2023/03/23 22:13:45;;;;;;;1.38;0.80;;;;;;;13.01;76.45;99164.00;10541467;28;20115;-73
2023/03/23 22:18:48;;;;;;;0.68;0.68;;;;;;;12.96;76.29;99157.28;10541380;28;20571;-74
2023/03/23 22:23:52;;;;;;;1.15;0.80;;;;;;;12.96;75.90;99154.66;10541750;28;20531;-74
2023/03/23 22:28:54;;;;;;;1.17;0.80;;;;;;;12.78;76.98;99145.97;10541118;28;20408;-74
2023/03/23 22:33:56;;;;;;;0.75;0.60;;;;;;;12.74;77.33;99144.44;10523434;28;20115;-74
2023/03/23 22:39:00;;;;;;;0.80;0.70;;;;;;;13.05;75.05;99146.22;10541390;28;20043;-74
2023/03/23 22:44:03;;;;;;;2.33;1.08;;;;;;;13.09;75.10;99135.41;10540779;28;20047;-73
2023/03/23 22:49:05;;;;;;;1.60;0.70;;;;;;;13.18;74.24;99120.00;10540748;28;20466;-74
2023/03/23 22:54:08;;;;;;;1.23;0.95;;;;;;;13.28;73.01;99118.56;10541872;28;20508;-74
2023/03/23 22:59:11;;;;;;;1.73;1.15;;;;;;;13.16;74.14;99109.53;10549359;28;20047;-74
2023/03/23 23:04:12;;;;;;;2.05;1.05;;;;;;;13.03;74.88;99108.53;10550427;28;20067;-74
2023/03/23 23:09:18;;;;;;;1.27;1.00;;;;;;;12.94;75.26;99103.78;10550093;28;20036;-74
2023/03/23 23:14:20;;;;;;;1.30;1.20;;;;;;;12.88;75.73;99104.97;10548211;28;20036;-73
2023/03/23 23:19:22;;;;;;;1.80;1.33;;;;;;;12.81;76.22;99096.56;10547048;28;20036;-73
2023/03/23 23:24:25;;;;;;;2.88;2.10;;;;;;;13.03;75.68;99093.56;10548045;28;20048;-73
2023/03/23 23:29:27;;;;;;;2.45;1.90;;;;;;;12.98;75.42;99087.69;10530343;28;20037;-73
2023/03/23 23:34:28;;;;;;;2.58;1.30;;;;;;;12.84;76.21;99090.28;10547596;28;20070;-74
2023/03/23 23:39:30;;;;;;;2.72;1.40;;;;;;;12.69;76.93;99084.03;10529951;28;20492;-74
2023/03/23 23:44:32;;;;;;;1.10;1.00;;;;;;;12.70;77.57;99072.56;10547795;28;20036;-74
2023/03/23 23:49:34;;;;;;;1.58;1.48;;;;;;;12.66;78.19;99060.50;10546864;28;20070;-74